^^
Station Historical Data
Daily Summary for January 15, 2017 Units:  English    Metric   Both
« Previous Day
Next Day »
Daily Weekly Monthly Yearly Custom
  High: Low: Average:
Temperature: 37.7 °F 26.6 °F 30.5 °F
Dew Point: 26.5 °F 20.8 °F 23.3 °F
Humidity: 94% 56% 75%
Wind Speed: 5.0mph 0.0mph 0.4mph
Wind Gust: 9.0mph - -
Wind- - WSW
Pressure: 30.44 in 30.29 in -
Precipitation: 0.04 in    
Historical Graphs
 
 
Tabular Data for January 15, 2017
Time Temperature Dew Point Pressure Wind Wind Speed Wind Gust Humidity Rainfall Rate (Hourly) Conditions
00:00 27.5 °F 25.8 °F 30.33 in Calm   3.0 mph 93% 0.00 in OVC
00:10 27.5 °F 25.7 °F 30.33 in Calm   2.0 mph 93% 0.00 in BKN
00:20 27.5 °F 25.7 °F 30.33 in Calm   4.0 mph 93% 0.00 in BKN
00:30 27.5 °F 25.7 °F 30.33 in Calm   2.0 mph 93% 0.00 in BKN
00:40 27.5 °F 25.7 °F 30.33 in Calm   3.0 mph 93% 0.00 in BKN
00:50 27.6 °F 26.1 °F 30.32 in SW 1.0 mph 3.0 mph 94% 0.00 in BKN
01:00 27.6 °F 25.8 °F 30.31 in Calm   2.0 mph 93% 0.00 in BKN
01:10 27.5 °F 25.7 °F 30.31 in SW 1.0 mph 3.0 mph 93% 0.00 in OVC
01:20 27.3 °F 25.8 °F 30.31 in Calm   2.0 mph 94% 0.00 in OVC
01:30 27.2 °F 25.7 °F 30.30 in Calm   3.0 mph 94% 0.00 in OVC
01:40 27.5 °F 26.0 °F 30.31 in SW 2.0 mph 5.0 mph 94% 0.00 in OVC
01:50 27.7 °F 26.2 °F 30.31 in SW 1.0 mph 4.0 mph 94% 0.00 in OVC
02:00 28.0 °F 26.5 °F 30.30 in WSW 1.0 mph 6.0 mph 94% 0.00 in OVC
02:10 28.1 °F 26.3 °F 30.30 in WSW 2.0 mph 5.0 mph 93% 0.00 in OVC
02:20 28.2 °F 26.4 °F 30.30 in WSW 2.0 mph 6.0 mph 93% 0.00 in OVC
02:30 28.1 °F 26.3 °F 30.30 in Calm   5.0 mph 93% 0.00 in OVC
02:40 28.0 °F 26.2 °F 30.30 in Calm   3.0 mph 93% 0.00 in OVC
02:50 27.8 °F 26.0 °F 30.30 in Calm   2.0 mph 93% 0.00 in OVC
03:00 27.6 °F 25.8 °F 30.30 in WSW 1.0 mph 3.0 mph 93% 0.00 in OVC
03:10 27.5 °F 25.7 °F 30.30 in Calm   3.0 mph 93% 0.00 in SCT
03:20 27.3 °F 25.5 °F 30.30 in Calm   1.0 mph 93% 0.00 in SCT
03:30 27.0 °F 25.3 °F 30.29 in Calm   1.0 mph 93% 0.00 in SCT
03:40 27.0 °F 25.2 °F 30.29 in Calm   1.0 mph 93% 0.00 in SCT
03:50 26.7 °F 24.9 °F 30.29 in Calm     93% 0.00 in SCT
04:00 26.6 °F 24.9 °F 30.30 in Calm   1.0 mph 93% 0.00 in SCT
04:10 26.8 °F 25.0 °F 30.30 in Calm     93% 0.00 in SCT
04:20 27.0 °F 25.2 °F 30.30 in Calm   1.0 mph 93% 0.00 in SCT
04:30 27.0 °F 25.0 °F 30.30 in Calm   2.0 mph 92% 0.00 in SCT
04:40 27.3 °F 25.0 °F 30.30 in Calm   2.0 mph 91% 0.00 in SCT
04:50 27.4 °F 24.8 °F 30.30 in North 1.0 mph 2.0 mph 90% 0.00 in SCT
05:00 27.5 °F 24.4 °F 30.30 in Calm   3.0 mph 88% 0.00 in SCT
05:20 27.7 °F 24.1 °F 30.30 in North 1.0 mph 5.0 mph 86% 0.00 in CLR
05:30 27.7 °F 23.8 °F 30.30 in Calm   7.0 mph 85% 0.00 in CLR
05:40 27.6 °F 23.7 °F 30.30 in Calm   3.0 mph 85% 0.00 in CLR
05:50 27.6 °F 23.7 °F 30.31 in Calm   3.0 mph 85% 0.00 in CLR
06:00 27.6 °F 23.4 °F 30.31 in Calm   2.0 mph 84% 0.00 in CLR
06:10 27.5 °F 23.6 °F 30.31 in Calm   2.0 mph 85% 0.00 in CLR
06:30 27.3 °F 23.1 °F 30.32 in Calm   2.0 mph 84% 0.00 in CLR
06:40 27.2 °F 23.0 °F 30.33 in Calm   2.0 mph 84% 0.00 in CLR
06:50 27.1 °F 23.0 °F 30.33 in North 2.0 mph 3.0 mph 84% 0.00 in CLR
07:00 27.2 °F 23.0 °F 30.34 in North 1.0 mph 4.0 mph 84% 0.00 in CLR
07:10 27.3 °F 22.8 °F 30.35 in North 1.0 mph 4.0 mph 83% 0.00 in CLR
07:20 27.1 °F 22.6 °F 30.35 in NNE 1.0 mph 6.0 mph 83% 0.00 in CLR
07:30 27.1 °F 22.6 °F 30.35 in NNE 2.0 mph 5.0 mph 83% 0.00 in CLR
07:40 27.0 °F 22.6 °F 30.36 in Calm   2.0 mph 83% 0.00 in CLR
07:50 27.0 °F 22.2 °F 30.36 in North 1.0 mph 4.0 mph 82% 0.00 in CLR
08:00 27.0 °F 22.2 °F 30.37 in North 1.0 mph 4.0 mph 82% 0.00 in CLR
08:10 26.9 °F 22.1 °F 30.37 in Calm   1.0 mph 82% 0.00 in CLR
08:20 27.1 °F 22.3 °F 30.38 in Calm   2.0 mph 82% 0.00 in CLR
08:30 27.1 °F 22.3 °F 30.38 in NNW 1.0 mph 2.0 mph 82% 0.00 in CLR
08:40 27.2 °F 22.4 °F 30.38 in North 1.0 mph 2.0 mph 82% 0.00 in CLR
08:50 27.5 °F 22.4 °F 30.38 in Calm   4.0 mph 81% 0.00 in CLR
09:00 27.7 °F 22.0 °F 30.38 in North 1.0 mph 3.0 mph 79% 0.00 in CLR
09:10 28.0 °F 22.3 °F 30.39 in North 1.0 mph 5.0 mph 79% 0.00 in CLR
09:20 28.4 °F 22.4 °F 30.39 in North 1.0 mph 6.0 mph 78% 0.00 in CLR
09:30 28.8 °F 22.5 °F 30.39 in Calm   4.0 mph 77% 0.00 in CLR
09:40 29.4 °F 22.8 °F 30.40 in Calm   3.0 mph 76% 0.00 in CLR
09:50 29.6 °F 22.6 °F 30.40 in Calm   5.0 mph 75% 0.00 in CLR
10:00 30.0 °F 22.4 °F 30.40 in NW 1.0 mph 4.0 mph 73% 0.00 in CLR
10:10 30.3 °F 22.0 °F 30.40 in Calm   4.0 mph 71% 0.00 in CLR
10:20 30.6 °F 22.6 °F 30.40 in West 1.0 mph 5.0 mph 72% 0.00 in CLR
10:30 31.0 °F 22.7 °F 30.40 in West 1.0 mph 4.0 mph 71% 0.00 in CLR
10:40 31.3 °F 22.7 °F 30.40 in Calm   4.0 mph 70% 0.00 in CLR
10:50 32.1 °F 23.4 °F 30.40 in Calm   4.0 mph 70% 0.00 in CLR
11:00 32.5 °F 23.5 °F 30.39 in Calm   3.0 mph 69% 0.00 in CLR
11:10 32.5 °F 22.8 °F 30.39 in Calm   5.0 mph 67% 0.01 in RA
11:20 33.1 °F 23.3 °F 30.39 in NW 3.0 mph 6.0 mph 67% 0.00 in FEW
11:30 33.3 °F 23.2 °F 30.38 in NNW 1.0 mph 3.0 mph 66% 0.00 in FEW
11:40 33.5 °F 23.4 °F 30.38 in NW 1.0 mph 6.0 mph 66% 0.01 in RA
11:50 33.5 °F 23.4 °F 30.38 in Calm   6.0 mph 66% 0.00 in FEW
12:00 34.0 °F 23.5 °F 30.37 in NW 1.0 mph 5.0 mph 65% 0.00 in FEW
12:10 34.1 °F 23.2 °F 30.37 in NE 3.0 mph 9.0 mph 64% 0.00 in FEW
12:20 33.9 °F 23.4 °F 30.36 in NNW 1.0 mph 6.0 mph 65% 0.00 in FEW
12:30 34.3 °F 23.8 °F 30.36 in Calm   6.0 mph 65% 0.01 in RA
12:40 34.6 °F 23.7 °F 30.35 in North 2.0 mph 6.0 mph 64% 0.00 in FEW
12:50 35.2 °F 23.9 °F 30.35 in NW 1.0 mph 4.0 mph 63% 0.00 in FEW
13:00 35.2 °F 23.9 °F 30.35 in NW 1.0 mph 8.0 mph 63% 0.00 in FEW
13:10 35.2 °F 23.5 °F 30.34 in North 2.0 mph 6.0 mph 62% 0.00 in CLR
13:20 35.5 °F 23.8 °F 30.35 in NW 1.0 mph 4.0 mph 62% 0.00 in CLR
13:30 35.5 °F 23.4 °F 30.34 in West 1.0 mph 3.0 mph 61% 0.01 in RA
13:40 35.9 °F 23.8 °F 30.34 in North 1.0 mph 4.0 mph 61% 0.00 in CLR
13:50 35.9 °F 23.3 °F 30.34 in WNW 1.0 mph 5.0 mph 60% 0.00 in CLR
14:00 35.9 °F 23.8 °F 30.34 in Calm   4.0 mph 61% 0.00 in CLR
14:10 36.5 °F 24.3 °F 30.34 in Calm   4.0 mph 61% 0.00 in CLR
14:20 36.3 °F 23.3 °F 30.34 in Calm   4.0 mph 59% 0.00 in CLR
14:30 36.9 °F 23.5 °F 30.34 in WSW 5.0 mph 7.0 mph 58% 0.00 in CLR
14:40 37.0 °F 23.2 °F 30.34 in WSW 1.0 mph 5.0 mph 57% 0.00 in CLR
14:50 37.0 °F 23.6 °F 30.34 in Calm   2.0 mph 58% 0.00 in CLR
15:00 37.1 °F 23.7 °F 30.35 in Calm   3.0 mph 58% 0.00 in CLR
15:10 37.2 °F 23.4 °F 30.35 in WNW 1.0 mph 4.0 mph 57% 0.00 in CLR
15:20 37.3 °F 23.4 °F 30.35 in West 1.0 mph 3.0 mph 57% 0.00 in CLR
15:30 37.4 °F 23.5 °F 30.35 in WNW 1.0 mph 3.0 mph 57% 0.00 in CLR
15:40 37.7 °F 23.8 °F 30.35 in Calm   2.0 mph 57% 0.00 in CLR
15:50 37.7 °F 23.4 °F 30.35 in WNW 1.0 mph 4.0 mph 56% 0.00 in CLR
16:00 37.6 °F 23.8 °F 30.35 in Calm   1.0 mph 57% 0.00 in CLR
16:10 37.6 °F 23.7 °F 30.35 in Calm   2.0 mph 57% 0.00 in CLR
16:20 37.4 °F 23.5 °F 30.35 in Calm   1.0 mph 57% 0.00 in CLR
16:30 37.2 °F 23.4 °F 30.36 in Calm   1.0 mph 57% 0.00 in CLR
16:40 37.0 °F 23.6 °F 30.36 in Calm     58% 0.00 in CLR
16:50 35.7 °F 23.1 °F 30.36 in Calm     60% 0.00 in CLR
17:00 34.4 °F 23.1 °F 30.36 in Calm     63% 0.00 in CLR
17:10 33.8 °F 22.9 °F 30.36 in Calm   1.0 mph 64% 0.00 in CLR
17:20 33.5 °F 23.0 °F 30.37 in Calm   1.0 mph 65% 0.00 in CLR
17:30 32.8 °F 23.1 °F 30.38 in Calm     67% 0.00 in CLR
17:40 32.1 °F 23.4 °F 30.38 in Calm   1.0 mph 70% 0.00 in CLR
17:50 32.0 °F 23.3 °F 30.38 in Calm   1.0 mph 70% 0.00 in CLR
18:00 31.3 °F 23.3 °F 30.39 in Calm     72% 0.00 in CLR
18:10 31.1 °F 23.5 °F 30.39 in Calm   1.0 mph 73% 0.00 in CLR
18:20 30.6 °F 23.3 °F 30.39 in Calm     74% 0.00 in CLR
18:30 30.7 °F 23.1 °F 30.40 in Calm   1.0 mph 73% 0.00 in CLR
18:40 31.4 °F 22.7 °F 30.40 in Calm   3.0 mph 70% 0.00 in CLR
18:50 31.0 °F 22.4 °F 30.40 in Calm     70% 0.00 in CLR
19:00 30.7 °F 22.1 °F 30.40 in Calm     70% 0.00 in CLR
19:10 30.8 °F 22.2 °F 30.41 in Calm   1.0 mph 70% 0.00 in CLR
19:20 31.1 °F 21.8 °F 30.40 in Calm   2.0 mph 68% 0.00 in CLR
19:30 30.9 °F 21.9 °F 30.40 in Calm   1.0 mph 69% 0.00 in CLR
19:40 30.8 °F 21.8 °F 30.40 in Calm   1.0 mph 69% 0.00 in CLR
19:50 31.0 °F 22.0 °F 30.40 in Calm   1.0 mph 69% 0.00 in CLR
20:00 30.7 °F 21.7 °F 30.40 in Calm   1.0 mph 69% 0.00 in CLR
20:10 30.6 °F 21.6 °F 30.41 in Calm   2.0 mph 69% 0.00 in CLR
20:20 30.1 °F 21.5 °F 30.42 in Calm   1.0 mph 70% 0.00 in CLR
20:30 30.1 °F 21.5 °F 30.42 in Calm   1.0 mph 70% 0.00 in CLR
20:40 29.6 °F 21.3 °F 30.42 in Calm   1.0 mph 71% 0.00 in CLR
20:50 29.9 °F 21.7 °F 30.42 in Calm   3.0 mph 71% 0.00 in CLR
21:00 30.1 °F 21.8 °F 30.42 in Calm   1.0 mph 71% 0.00 in CLR
21:10 29.5 °F 21.3 °F 30.42 in Calm     71% 0.00 in CLR
21:20 29.1 °F 21.8 °F 30.42 in Calm     74% 0.00 in CLR
21:30 29.2 °F 21.9 °F 30.42 in Calm   1.0 mph 74% 0.00 in CLR
21:40 28.9 °F 21.3 °F 30.42 in Calm     73% 0.00 in CLR
21:50 29.2 °F 21.6 °F 30.43 in Calm   1.0 mph 73% 0.00 in CLR
22:00 29.6 °F 22.0 °F 30.43 in NNE 1.0 mph 3.0 mph 73% 0.00 in CLR
22:10 29.1 °F 21.2 °F 30.43 in Calm   2.0 mph 72% 0.00 in CLR
22:20 29.2 °F 21.3 °F 30.43 in Calm   2.0 mph 72% 0.00 in CLR
22:30 29.2 °F 21.0 °F 30.43 in Calm   2.0 mph 71% 0.00 in CLR
22:40 29.1 °F 20.9 °F 30.43 in Calm   2.0 mph 71% 0.00 in CLR
22:50 29.0 °F 21.4 °F 30.43 in Calm   2.0 mph 73% 0.00 in CLR
23:00 28.8 °F 21.6 °F 30.43 in Calm   2.0 mph 74% 0.00 in CLR
23:10 28.6 °F 21.3 °F 30.43 in Calm   1.0 mph 74% 0.00 in CLR
23:20 28.5 °F 21.3 °F 30.44 in Calm   2.0 mph 74% 0.00 in CLR
23:30 28.2 °F 21.0 °F 30.44 in Calm   1.0 mph 74% 0.00 in CLR
23:40 28.1 °F 21.2 °F 30.43 in Calm     75% 0.00 in CLR
23:50 27.7 °F 20.8 °F 30.44 in Calm   1.0 mph 75% 0.00 in CLR
TarryTown NY Weather
Compliments of Weather Underground - 1.75 mb